createdAt,value
2022-12-03T00:02:25.324Z,29.38
2022-12-03T00:04:52.615Z,33.70
2022-12-03T00:07:19.826Z,33.45
2022-12-03T00:09:46.838Z,32.72
2022-12-03T00:12:13.906Z,33.45
2022-12-03T00:14:44.669Z,29.48
2022-12-03T00:17:12.083Z,32.45
2022-12-03T00:19:38.996Z,32.22
2022-12-03T00:22:06.027Z,30.05
2022-12-03T00:24:33.236Z,30.02
2022-12-03T00:27:00.175Z,28.92
2022-12-03T00:29:27.135Z,30.42
2022-12-03T00:31:54.130Z,28.13
2022-12-03T00:34:22.582Z,28.50
2022-12-03T00:36:49.672Z,29.20
2022-12-03T00:39:16.592Z,31.30
2022-12-03T00:41:43.540Z,30.58
2022-12-03T00:44:12.143Z,28.35
2022-12-03T00:46:39.167Z,30.30
2022-12-03T00:49:06.562Z,27.13
2022-12-03T00:51:36.070Z,30.25
2022-12-03T00:54:03.228Z,30.98
2022-12-03T00:56:30.231Z,31.83
2022-12-03T00:58:57.214Z,28.83
2022-12-03T01:01:24.253Z,30.23
2022-12-03T01:03:51.391Z,29.83
2022-12-03T01:06:18.270Z,32.92
2022-12-03T01:08:45.273Z,33.08
2022-12-03T01:11:30.866Z,29.42
2022-12-03T01:13:57.790Z,29.33
2022-12-03T01:16:24.828Z,27.95
2022-12-03T01:18:53.116Z,29.20
2022-12-03T01:21:20.343Z,29.02
2022-12-03T01:23:47.331Z,27.35
2022-12-03T01:26:14.461Z,29.17
2022-12-03T01:28:44.870Z,28.83
2022-12-03T01:31:30.482Z,28.30
2022-12-03T01:33:57.485Z,29.02
2022-12-03T01:36:24.491Z,28.73
2022-12-03T01:38:51.451Z,32.40
2022-12-03T01:41:19.842Z,28.48
2022-12-03T01:43:48.199Z,28.10
2022-12-03T01:46:23.470Z,29.73
2022-12-03T01:48:54.259Z,28.05
2022-12-03T01:51:21.483Z,32.53
2022-12-03T01:53:49.079Z,30.77
2022-12-03T01:56:18.434Z,32.72
2022-12-03T01:58:47.362Z,29.23
2022-12-03T02:01:16.853Z,28.83
2022-12-03T02:03:45.057Z,29.55
2022-12-03T02:06:20.942Z,27.98
2022-12-03T02:08:48.731Z,30.73
2022-12-03T02:11:34.448Z,29.52
2022-12-03T02:14:09.078Z,31.08
2022-12-03T02:16:38.201Z,32.70
2022-12-03T02:19:34.978Z,32.55
2022-12-03T02:22:08.221Z,32.63
2022-12-03T02:24:46.193Z,29.17
2022-12-03T02:27:13.431Z,33.40
2022-12-03T02:29:40.365Z,32.03
2022-12-03T02:32:07.588Z,30.58
2022-12-03T02:34:34.566Z,30.40
2022-12-03T02:37:02.291Z,29.88
2022-12-03T02:39:29.408Z,32.40
2022-12-03T02:42:14.975Z,34.60
2022-12-03T02:44:42.017Z,32.30
2022-12-03T02:47:09.296Z,30.70
2022-12-03T02:49:36.391Z,34.03
2022-12-03T02:52:03.897Z,35.65
2022-12-03T02:54:31.436Z,32.72
2022-12-03T02:56:58.505Z,35.65
2022-12-03T02:59:25.625Z,34.55
2022-12-03T03:01:52.702Z,36.03
2022-12-03T03:04:19.931Z,37.55
2022-12-03T03:06:47.042Z,38.03
2022-12-03T03:09:14.064Z,36.80
2022-12-03T03:11:41.022Z,40.88
2022-12-03T03:14:07.914Z,36.17
2022-12-03T03:16:35.300Z,36.85
2022-12-03T03:19:04.470Z,35.83
2022-12-03T03:21:31.516Z,36.47
2022-12-03T03:23:58.384Z,38.10
2022-12-03T03:26:25.594Z,39.47
2022-12-03T03:28:52.949Z,36.78
2022-12-03T03:31:24.972Z,40.28
2022-12-03T03:33:52.168Z,40.58
2022-12-03T03:36:19.995Z,40.83
2022-12-03T03:38:47.782Z,40.33
2022-12-03T03:41:16.099Z,40.75
2022-12-03T03:43:45.857Z,40.20
2022-12-03T03:46:14.223Z,37.63
2022-12-03T03:48:43.320Z,39.47
2022-12-03T03:51:11.497Z,39.75
2022-12-03T03:53:44.474Z,39.25
2022-12-03T03:56:12.356Z,39.47
2022-12-03T03:58:39.441Z,38.25
2022-12-03T04:01:06.890Z,39.75
2022-12-03T04:03:34.719Z,37.03
2022-12-03T04:06:02.027Z,39.10
2022-12-03T04:08:28.981Z,36.30
2022-12-03T04:11:14.699Z,37.38
2022-12-03T04:13:41.615Z,40.45
2022-12-03T04:16:08.678Z,37.58
2022-12-03T04:18:44.686Z,36.20
2022-12-03T04:21:41.316Z,36.90
2022-12-03T04:24:10.628Z,40.10
2022-12-03T04:26:56.232Z,39.25
2022-12-03T04:29:23.327Z,36.80
2022-12-03T04:32:09.382Z,36.30
2022-12-03T04:34:55.315Z,37.75
2022-12-03T04:37:22.524Z,38.72
2022-12-03T04:39:49.489Z,38.42
2022-12-03T04:42:16.594Z,39.55
2022-12-03T04:44:43.552Z,40.25
2022-12-03T04:47:18.372Z,37.97
2022-12-03T04:49:47.750Z,39.50
2022-12-03T04:52:17.124Z,39.97
2022-12-03T04:54:44.278Z,38.17
2022-12-03T04:57:11.777Z,57.90
2022-12-03T04:59:39.637Z,40.33
2022-12-03T05:02:07.484Z,41.58
2022-12-03T05:04:34.982Z,40.55
2022-12-03T05:07:02.249Z,41.83
2022-12-03T05:09:29.245Z,39.88
2022-12-03T05:11:56.211Z,43.85
2022-12-03T05:14:23.130Z,47.28
2022-12-03T05:16:50.086Z,45.65
2022-12-03T05:19:17.044Z,50.10
2022-12-03T05:21:44.025Z,53.33
2022-12-03T05:24:11.039Z,52.28
2022-12-03T05:26:37.913Z,55.35
2022-12-03T05:29:04.861Z,59.60
2022-12-03T05:31:31.790Z,100.28
2022-12-03T05:33:58.822Z,66.28
2022-12-03T05:36:25.924Z,63.83
2022-12-03T05:38:52.963Z,65.55
2022-12-03T05:41:38.481Z,63.50
2022-12-03T05:44:05.383Z,61.00
2022-12-03T05:46:33.328Z,66.60
2022-12-03T05:49:00.348Z,72.55
2022-12-03T05:51:27.439Z,68.93
2022-12-03T05:53:54.523Z,71.97
2022-12-03T05:56:21.475Z,65.68
2022-12-03T05:58:48.582Z,66.72
2022-12-03T06:01:15.513Z,72.05
2022-12-03T06:03:42.566Z,64.53
2022-12-03T06:06:09.726Z,66.45
2022-12-03T06:08:36.786Z,75.43
2022-12-03T06:11:04.010Z,79.00
2022-12-03T06:13:30.960Z,77.40
2022-12-03T06:15:58.016Z,76.60
2022-12-03T06:18:25.031Z,82.90
2022-12-03T06:20:52.170Z,79.32
2022-12-03T06:23:19.290Z,72.50
2022-12-03T06:25:46.224Z,78.80
2022-12-03T06:28:13.244Z,75.35
2022-12-03T06:30:40.454Z,75.78
2022-12-03T06:33:07.457Z,70.80
2022-12-03T06:35:34.375Z,77.55
2022-12-03T06:38:01.438Z,79.57
2022-12-03T06:40:28.490Z,76.85
2022-12-03T06:42:55.625Z,75.22
2022-12-03T06:45:22.638Z,70.55
2022-12-03T06:47:49.521Z,73.00
2022-12-03T06:50:16.689Z,68.85
2022-12-03T06:52:43.639Z,71.22
2022-12-03T06:55:10.600Z,70.97
2022-12-03T06:57:37.737Z,69.95
2022-12-03T07:00:06.573Z,70.03
2022-12-03T07:02:33.584Z,68.88
2022-12-03T07:05:00.626Z,75.53
2022-12-03T07:07:27.675Z,67.40
2022-12-03T07:09:54.646Z,66.88
2022-12-03T07:12:22.058Z,69.90
2022-12-03T07:14:49.014Z,68.43
2022-12-03T07:17:15.988Z,76.15
2022-12-03T07:19:43.197Z,76.22
2022-12-03T07:22:10.123Z,77.93
2022-12-03T07:24:37.081Z,72.70
2022-12-03T07:27:04.122Z,66.57
2022-12-03T07:29:31.043Z,60.35
2022-12-03T07:31:58.072Z,63.20
2022-12-03T07:34:25.079Z,58.88
2022-12-03T07:36:52.082Z,58.13
2022-12-03T07:39:19.002Z,56.13
2022-12-03T07:41:45.936Z,62.50
2022-12-03T07:44:14.715Z,58.42
2022-12-03T07:46:42.647Z,57.53
2022-12-03T07:49:09.674Z,54.47
2022-12-03T07:51:36.683Z,54.78
2022-12-03T07:54:04.435Z,59.00
2022-12-03T07:56:31.366Z,55.58
2022-12-03T07:58:58.375Z,56.92
2022-12-03T08:01:25.430Z,55.78
2022-12-03T08:03:52.380Z,54.65
2022-12-03T08:06:19.432Z,54.30
2022-12-03T08:08:46.376Z,54.60
2022-12-03T08:11:15.270Z,50.25
2022-12-03T08:13:42.648Z,51.90
2022-12-03T08:16:21.255Z,48.30
2022-12-03T08:18:49.592Z,52.00
2022-12-03T08:21:19.102Z,54.28
2022-12-03T08:23:46.096Z,47.15
2022-12-03T08:26:21.956Z,48.20
2022-12-03T08:28:49.480Z,48.67
2022-12-03T08:31:29.316Z,51.60
2022-12-03T08:34:15.770Z,49.37
2022-12-03T08:36:42.712Z,47.72
2022-12-03T08:39:36.047Z,47.15
2022-12-03T08:42:31.568Z,44.20
2022-12-03T08:45:32.183Z,48.92
2022-12-03T08:48:04.079Z,42.42
2022-12-03T08:50:33.969Z,44.22
2022-12-03T08:53:12.149Z,38.50
2022-12-03T08:55:45.757Z,38.45
2022-12-03T08:58:23.335Z,40.63
2022-12-03T09:00:57.113Z,37.20
2022-12-03T09:03:24.796Z,37.28
2022-12-03T09:05:51.859Z,35.28
2022-12-03T09:08:18.922Z,34.22
2022-12-03T09:10:45.966Z,34.92
2022-12-03T09:13:12.883Z,34.05
2022-12-03T09:15:40.033Z,61.95
2022-12-03T09:18:07.132Z,34.80
2022-12-03T09:20:34.056Z,34.72
2022-12-03T09:23:01.177Z,31.50
2022-12-03T09:25:28.392Z,36.63
2022-12-03T09:27:55.544Z,31.50
2022-12-03T09:30:22.625Z,31.90
2022-12-03T09:32:49.691Z,30.17
2022-12-03T09:35:16.807Z,31.50
2022-12-03T09:37:44.006Z,30.48
2022-12-03T09:40:12.246Z,31.80
2022-12-03T09:42:39.920Z,28.30
2022-12-03T09:45:11.071Z,35.35
2022-12-03T09:47:45.281Z,30.48
2022-12-03T09:50:15.279Z,25.95
2022-12-03T09:52:42.412Z,29.25
2022-12-03T09:55:17.486Z,28.83
2022-12-03T09:57:44.631Z,29.33
2022-12-03T10:00:19.494Z,31.80
2022-12-03T10:02:48.882Z,27.45
2022-12-03T10:05:18.138Z,25.13
2022-12-03T10:07:45.290Z,26.58
2022-12-03T10:10:24.181Z,25.33
2022-12-03T10:12:52.623Z,25.00
2022-12-03T10:15:23.225Z,24.02
2022-12-03T10:17:54.753Z,24.05
2022-12-03T10:20:24.111Z,26.05
2022-12-03T10:22:51.230Z,20.90
2022-12-03T10:25:23.494Z,25.38
2022-12-03T10:28:01.528Z,24.52
2022-12-03T10:30:31.339Z,27.65
2022-12-03T10:33:02.831Z,27.73
2022-12-03T10:35:41.459Z,25.90
2022-12-03T10:38:19.599Z,39.20
2022-12-03T10:40:46.956Z,26.45
2022-12-03T10:43:23.285Z,27.50
2022-12-03T10:46:04.226Z,23.95
2022-12-03T10:48:31.798Z,23.50
2022-12-03T10:51:07.626Z,26.08
2022-12-03T10:53:36.714Z,23.10
2022-12-03T10:56:06.732Z,22.48
2022-12-03T10:58:42.301Z,21.15
2022-12-03T11:01:18.704Z,24.50
2022-12-03T11:03:46.613Z,21.95
2022-12-03T11:06:20.107Z,24.15
2022-12-03T11:08:56.203Z,22.33
2022-12-03T11:11:34.038Z,20.30
2022-12-03T11:14:03.872Z,24.27
2022-12-03T11:16:39.992Z,21.05
2022-12-03T11:19:12.944Z,22.70
2022-12-03T11:22:10.234Z,21.58
2022-12-03T11:24:39.241Z,24.77
2022-12-03T11:27:16.443Z,23.38
2022-12-03T11:30:00.539Z,25.13
2022-12-03T11:32:40.697Z,24.42
2022-12-03T11:35:16.194Z,24.27
2022-12-03T11:37:43.583Z,21.70
2022-12-03T11:40:16.578Z,22.48
2022-12-03T11:42:44.781Z,22.70
2022-12-03T11:45:22.806Z,23.55
2022-12-03T11:47:58.978Z,22.33
2022-12-03T11:50:39.443Z,23.38
2022-12-03T11:53:22.008Z,20.67
2022-12-03T11:56:06.751Z,24.35
2022-12-03T11:58:39.029Z,21.13
2022-12-03T12:01:08.252Z,17.77
2022-12-03T12:03:55.511Z,21.65
2022-12-03T12:06:22.575Z,19.23
2022-12-03T12:08:51.135Z,19.90
2022-12-03T12:11:46.358Z,18.23
2022-12-03T12:14:13.997Z,21.63
2022-12-03T12:16:51.696Z,18.70
2022-12-03T12:19:28.969Z,20.35
2022-12-03T12:22:12.103Z,20.05
2022-12-03T12:24:48.104Z,20.50
2022-12-03T12:27:21.761Z,22.25
2022-12-03T12:29:58.129Z,20.58
2022-12-03T12:32:42.490Z,20.30
2022-12-03T12:35:24.348Z,20.95
2022-12-03T12:38:00.059Z,19.25
2022-12-03T12:40:33.102Z,18.10
2022-12-03T12:43:10.019Z,22.67
2022-12-03T12:45:43.234Z,20.90
2022-12-03T12:48:10.244Z,21.30
2022-12-03T12:50:38.398Z,21.00
2022-12-03T12:53:11.075Z,21.65
2022-12-03T12:55:41.790Z,20.97
2022-12-03T12:58:15.975Z,23.15
2022-12-03T13:00:43.193Z,24.58
2022-12-03T13:03:13.062Z,21.67
2022-12-03T13:05:43.592Z,25.05
2022-12-03T13:08:40.837Z,25.48
2022-12-03T13:11:25.943Z,24.42
2022-12-03T13:13:53.040Z,24.20
2022-12-03T13:16:26.687Z,23.13
2022-12-03T13:18:58.227Z,24.20
2022-12-03T13:21:39.608Z,25.15
2022-12-03T13:24:33.818Z,24.05
2022-12-03T13:29:32.424Z,22.80
2022-12-03T13:32:01.909Z,23.42
2022-12-03T13:34:33.599Z,24.27
2022-12-03T13:37:12.549Z,21.90
2022-12-03T13:39:46.162Z,29.65
2022-12-03T13:42:38.469Z,24.35
2022-12-03T13:45:14.409Z,23.55
2022-12-03T13:47:48.930Z,22.02
2022-12-03T13:50:41.794Z,26.25
2022-12-03T13:53:11.598Z,26.00
2022-12-03T13:55:47.096Z,26.25
2022-12-03T13:58:14.049Z,24.15
2022-12-03T14:00:41.169Z,27.33
2022-12-03T14:03:08.240Z,47.92
2022-12-03T14:05:35.166Z,24.15
2022-12-03T14:08:02.773Z,22.83
2022-12-03T14:10:29.881Z,24.75
2022-12-03T14:13:01.204Z,24.58
2022-12-03T14:15:28.442Z,25.90
2022-12-03T14:17:55.637Z,28.35
2022-12-03T14:20:22.637Z,27.85
2022-12-03T14:22:49.581Z,27.45
2022-12-03T14:25:16.629Z,25.95
2022-12-03T14:27:43.619Z,29.77
2022-12-03T14:30:11.201Z,31.10
2022-12-03T14:32:38.215Z,29.98
2022-12-03T14:35:09.900Z,27.92
2022-12-03T14:37:37.617Z,30.73
2022-12-03T14:40:07.283Z,27.67
2022-12-03T14:42:34.211Z,31.58
2022-12-03T14:45:01.281Z,33.80
2022-12-03T14:47:28.244Z,32.75
2022-12-03T14:49:55.374Z,31.77
2022-12-03T14:52:22.458Z,31.67
2022-12-03T14:54:49.783Z,30.58
2022-12-03T14:57:17.067Z,30.50
2022-12-03T14:59:45.178Z,30.98
2022-12-03T15:02:13.874Z,33.47
2022-12-03T15:04:41.886Z,29.42
2022-12-03T15:07:12.127Z,31.17
2022-12-03T15:09:39.463Z,32.28
2022-12-03T15:12:07.128Z,35.47
2022-12-03T15:14:34.857Z,35.97
2022-12-03T15:17:02.239Z,37.22
2022-12-03T15:19:29.728Z,34.00
2022-12-03T15:21:57.693Z,33.80
2022-12-03T15:24:24.700Z,30.73
2022-12-03T15:26:53.891Z,34.50
2022-12-03T15:29:22.029Z,33.70
2022-12-03T15:31:49.514Z,32.30
2022-12-03T15:34:22.161Z,32.15
2022-12-03T15:36:49.832Z,36.30
2022-12-03T15:39:16.897Z,34.22
2022-12-03T15:41:46.583Z,37.38
2022-12-03T15:44:13.621Z,34.40
2022-12-03T15:46:40.534Z,38.00
2022-12-03T15:49:08.049Z,39.60
2022-12-03T15:51:35.108Z,37.80
2022-12-03T15:54:02.257Z,42.58
2022-12-03T15:56:29.336Z,39.13
2022-12-03T15:58:56.265Z,39.55
2022-12-03T16:01:23.385Z,39.28
2022-12-03T16:03:50.421Z,40.22
2022-12-03T16:06:18.791Z,35.97
2022-12-03T16:08:46.268Z,39.25
2022-12-03T16:11:13.343Z,35.17
2022-12-03T16:13:40.408Z,40.55
2022-12-03T16:16:07.857Z,41.13
2022-12-03T16:18:35.248Z,42.03
2022-12-03T16:21:02.575Z,43.10
2022-12-03T16:23:29.964Z,45.13
2022-12-03T16:25:56.982Z,45.45
2022-12-03T16:28:24.432Z,45.67
2022-12-03T16:30:51.820Z,45.65
2022-12-03T16:33:22.618Z,42.80
2022-12-03T16:35:53.290Z,43.75
2022-12-03T16:38:20.673Z,44.15
2022-12-03T16:40:47.892Z,41.00
2022-12-03T16:43:15.305Z,42.75
2022-12-03T16:46:01.024Z,40.70
2022-12-03T16:48:30.731Z,41.50
2022-12-03T16:50:58.424Z,43.17
2022-12-03T16:53:25.627Z,44.28
2022-12-03T16:55:52.794Z,44.70
2022-12-03T16:58:23.073Z,48.90
2022-12-03T17:00:50.576Z,45.55
2022-12-03T17:03:18.418Z,47.30
2022-12-03T17:05:46.614Z,46.53
2022-12-03T17:08:14.724Z,45.72
2022-12-03T17:10:42.786Z,41.75
2022-12-03T17:13:10.837Z,40.15
2022-12-03T17:15:39.330Z,44.85
2022-12-03T17:18:07.208Z,42.67
2022-12-03T17:20:36.033Z,41.75
2022-12-03T17:23:03.305Z,37.80
2022-12-03T17:25:30.616Z,39.88
2022-12-03T17:27:57.695Z,38.95
2022-12-03T17:30:24.652Z,37.75
2022-12-03T17:32:51.703Z,40.20
2022-12-03T17:35:19.417Z,37.78
2022-12-03T17:37:48.073Z,54.63
2022-12-03T17:40:17.498Z,46.00
2022-12-03T17:42:45.823Z,39.45
2022-12-03T17:45:14.000Z,40.90
2022-12-03T17:47:41.554Z,40.85
2022-12-03T17:50:09.382Z,41.28
2022-12-03T17:52:36.335Z,47.50
2022-12-03T17:55:15.723Z,43.70
2022-12-03T17:57:45.011Z,45.55
2022-12-03T18:00:12.633Z,42.13
2022-12-03T18:02:41.997Z,42.80
2022-12-03T18:05:10.306Z,43.38
2022-12-03T18:07:37.719Z,42.90
2022-12-03T18:10:05.485Z,46.35
2022-12-03T18:12:32.805Z,40.53
2022-12-03T18:14:59.917Z,42.03
2022-12-03T18:17:29.170Z,44.55
2022-12-03T18:19:56.755Z,44.72
2022-12-03T18:22:24.471Z,45.65
2022-12-03T18:24:52.226Z,44.88
2022-12-03T18:27:21.358Z,49.08
2022-12-03T18:29:50.078Z,47.75
2022-12-03T18:32:28.404Z,44.22
2022-12-03T18:34:57.981Z,46.13
2022-12-03T18:37:31.207Z,48.90
2022-12-03T18:39:59.760Z,42.40
2022-12-03T18:42:27.449Z,43.03
2022-12-03T18:44:56.263Z,47.97
2022-12-03T18:47:30.112Z,43.25
2022-12-03T18:49:58.158Z,46.17
2022-12-03T18:52:25.615Z,45.72
2022-12-03T18:54:53.068Z,49.28
2022-12-03T18:57:20.600Z,48.05
2022-12-03T18:59:48.076Z,50.35
2022-12-03T19:02:46.118Z,49.45
2022-12-03T19:05:07.467Z,49.92
2022-12-03T19:07:34.688Z,49.88
2022-12-03T19:10:02.179Z,44.85
2022-12-03T19:12:29.665Z,46.03
2022-12-03T19:14:57.192Z,45.28
2022-12-03T19:17:24.682Z,45.20
2022-12-03T19:19:52.837Z,49.10
2022-12-03T19:22:20.611Z,43.88
2022-12-03T19:24:47.867Z,43.08
2022-12-03T19:27:14.989Z,41.47
2022-12-03T19:29:42.718Z,42.65
2022-12-03T19:32:09.795Z,46.70
2022-12-03T19:34:37.205Z,42.90
2022-12-03T19:37:04.252Z,43.58
2022-12-03T19:39:31.619Z,42.15
2022-12-03T19:41:59.434Z,43.20
2022-12-03T19:44:26.950Z,44.70
2022-12-03T19:46:54.584Z,41.78
2022-12-03T19:49:22.540Z,44.83
